createdAt,value
2019-04-27T00:00:14.657Z,16.10
2019-04-27T00:02:55.823Z,16.10
2019-04-27T00:05:41.290Z,16.10
2019-04-27T00:08:35.076Z,16.10
2019-04-27T00:11:11.649Z,16.00
2019-04-27T00:13:43.742Z,16.00
2019-04-27T00:16:31.343Z,16.00
2019-04-27T00:19:18.460Z,15.90
2019-04-27T00:21:50.406Z,15.90
2019-04-27T00:24:21.156Z,15.90
2019-04-27T00:26:51.685Z,15.90
2019-04-27T00:29:21.803Z,15.80
2019-04-27T00:31:53.416Z,15.80
2019-04-27T00:34:24.383Z,15.70
2019-04-27T00:36:59.330Z,15.70
2019-04-27T00:39:46.857Z,15.60
2019-04-27T00:42:17.481Z,15.60
2019-04-27T00:44:47.710Z,15.50
2019-04-27T00:47:18.239Z,15.50
2019-04-27T00:49:48.767Z,15.50
2019-04-27T00:52:19.091Z,15.50
2019-04-27T00:54:49.415Z,15.40
2019-04-27T00:57:22.865Z,15.40
2019-04-27T01:00:11.363Z,15.40
2019-04-27T01:02:46.192Z,15.50
2019-04-27T01:05:18.155Z,15.50
2019-04-27T01:07:48.479Z,15.40
2019-04-27T01:10:19.417Z,15.40
2019-04-27T01:12:50.151Z,15.30
2019-04-27T01:15:20.680Z,15.30
2019-04-27T01:17:51.208Z,15.20
2019-04-27T01:20:21.928Z,15.20
2019-04-27T01:22:52.065Z,15.20
2019-04-27T01:25:24.227Z,15.20
2019-04-27T01:27:59.644Z,15.20
2019-04-27T01:30:32.657Z,15.20
2019-04-27T01:33:03.186Z,15.10
2019-04-27T01:35:33.511Z,15.20
2019-04-27T01:38:15.980Z,15.10
2019-04-27T01:40:46.246Z,15.10
2019-04-27T01:43:16.585Z,15.00
2019-04-27T01:45:48.737Z,15.00
2019-04-27T01:48:25.883Z,14.90
2019-04-27T01:50:55.524Z,14.80
2019-04-27T01:53:26.462Z,14.70
2019-04-27T01:55:59.055Z,14.80
2019-04-27T01:58:29.304Z,14.80
2019-04-27T02:01:09.532Z,14.80
2019-04-27T02:03:59.048Z,14.80
2019-04-27T02:06:30.363Z,14.80
2019-04-27T02:09:00.765Z,14.80
2019-04-27T02:11:31.091Z,14.80
2019-04-27T02:14:01.414Z,14.80
2019-04-27T02:16:31.739Z,14.80
2019-04-27T02:19:02.061Z,14.80
2019-04-27T02:21:32.386Z,14.80
2019-04-27T02:24:03.214Z,14.80
2019-04-27T02:26:33.441Z,14.70
2019-04-27T02:29:14.622Z,14.70
2019-04-27T02:31:50.035Z,14.70
2019-04-27T02:34:22.236Z,14.70
2019-04-27T02:36:52.560Z,14.60
2019-04-27T02:39:22.878Z,14.60
2019-04-27T02:41:53.202Z,14.60
2019-04-27T02:44:24.960Z,14.50
2019-04-27T02:46:55.285Z,14.60
2019-04-27T02:49:25.825Z,14.50
2019-04-27T02:52:00.852Z,14.50
2019-04-27T02:54:31.783Z,14.50
2019-04-27T02:57:02.312Z,14.50
2019-04-27T02:59:32.830Z,14.50
2019-04-27T03:02:20.781Z,14.50
2019-04-27T03:04:51.511Z,14.40
2019-04-27T03:07:22.039Z,14.30
2019-04-27T03:09:52.776Z,14.30
2019-04-27T03:12:24.734Z,14.20
2019-04-27T03:15:10.323Z,14.20
2019-04-27T03:17:42.384Z,14.20
2019-04-27T03:20:30.537Z,14.20
2019-04-27T03:23:02.485Z,14.20
2019-04-27T03:25:37.108Z,14.00
2019-04-27T03:28:10.713Z,13.90
2019-04-27T03:30:43.006Z,13.90
2019-04-27T03:33:13.203Z,13.90
2019-04-27T03:35:44.358Z,13.90
2019-04-27T03:38:14.871Z,14.10
2019-04-27T03:40:45.199Z,14.10
2019-04-27T03:43:20.256Z,14.00
2019-04-27T03:45:52.478Z,14.00
2019-04-27T03:48:22.514Z,13.90
2019-04-27T03:51:10.168Z,13.90
2019-04-27T03:53:49.718Z,14.00
2019-04-27T03:56:21.953Z,14.00
2019-04-27T03:58:53.916Z,14.20
2019-04-27T04:01:24.240Z,14.20
2019-04-27T04:03:54.766Z,14.20
2019-04-27T04:06:25.500Z,14.30
2019-04-27T04:08:56.032Z,14.30
2019-04-27T04:11:30.286Z,14.40
2019-04-27T04:14:06.919Z,14.40
2019-04-27T04:16:41.544Z,14.50
2019-04-27T04:19:12.166Z,14.60
2019-04-27T04:21:42.392Z,14.80
2019-04-27T04:24:12.924Z,14.90
2019-04-27T04:26:43.247Z,15.00
2019-04-27T04:29:13.982Z,15.10
2019-04-27T04:31:44.099Z,15.20
2019-04-27T04:34:14.628Z,15.30
2019-04-27T04:36:44.951Z,15.40
2019-04-27T04:39:15.278Z,15.50
2019-04-27T04:41:47.246Z,15.50
2019-04-27T04:47:26.806Z,15.60
2019-04-27T04:50:08.578Z,15.60
2019-04-27T04:52:29.531Z,15.70
2019-04-27T04:55:02.699Z,15.80
2019-04-27T04:57:31.778Z,15.80
2019-04-27T05:00:02.104Z,15.80
2019-04-27T05:02:32.636Z,15.80
2019-04-27T05:05:02.952Z,15.90
2019-04-27T05:07:33.276Z,15.90
2019-04-27T05:10:04.215Z,16.00
2019-04-27T05:12:34.531Z,16.20
2019-04-27T05:15:05.676Z,16.30
2019-04-27T05:17:35.681Z,16.50
2019-04-27T05:20:10.022Z,16.70
2019-04-27T05:22:39.342Z,16.80
2019-04-27T05:25:09.337Z,17.00
2019-04-27T05:27:40.798Z,17.10
2019-04-27T05:30:10.689Z,17.10
2019-04-27T05:32:40.551Z,17.10
2019-04-27T05:35:10.463Z,17.10
2019-04-27T05:37:40.356Z,17.10
2019-04-27T05:40:10.239Z,17.20
2019-04-27T05:42:40.127Z,17.10
2019-04-27T05:45:26.673Z,17.10
2019-04-27T05:48:01.092Z,17.20
2019-04-27T05:50:37.756Z,17.30
2019-04-27T05:53:02.663Z,17.40
2019-04-27T05:55:32.521Z,17.50
2019-04-27T05:58:02.343Z,17.60
2019-04-27T06:00:32.321Z,17.50
2019-04-27T06:03:02.229Z,17.40
2019-04-27T06:05:32.587Z,17.40
2019-04-27T06:08:02.523Z,17.50
2019-04-27T06:10:32.412Z,17.70
2019-04-27T06:13:02.405Z,17.80
2019-04-27T06:15:32.362Z,18.00
2019-04-27T06:18:02.259Z,18.10
2019-04-27T06:20:32.378Z,18.10
2019-04-27T06:23:02.272Z,18.20
2019-04-27T06:25:32.263Z,18.40
2019-04-27T06:28:02.274Z,18.50
2019-04-27T06:30:32.460Z,18.60
2019-04-27T06:33:02.340Z,18.70
2019-04-27T06:35:32.282Z,18.90
2019-04-27T06:38:02.305Z,19.00
2019-04-27T06:40:32.209Z,19.20
2019-04-27T06:43:02.148Z,19.40
2019-04-27T06:45:32.286Z,19.50
2019-04-27T06:48:02.815Z,19.40
2019-04-27T06:50:32.933Z,19.30
2019-04-27T06:53:03.262Z,19.20
2019-04-27T06:55:33.991Z,19.20
2019-04-27T06:58:04.314Z,19.20
2019-04-27T07:00:34.843Z,19.40
2019-04-27T07:03:05.167Z,19.90
2019-04-27T07:05:35.490Z,20.50
2019-04-27T07:08:05.605Z,21.10
2019-04-27T07:10:35.729Z,21.50
2019-04-27T07:13:06.074Z,21.40
2019-04-27T07:15:36.375Z,21.60
2019-04-27T07:18:07.108Z,22.00
2019-04-27T07:20:38.756Z,22.30
2019-04-27T07:23:09.485Z,22.50
2019-04-27T07:25:40.129Z,23.00
2019-04-27T07:28:10.471Z,22.60
2019-04-27T07:30:40.776Z,21.80
2019-04-27T07:33:11.101Z,21.10
2019-04-27T07:35:41.423Z,20.60
2019-04-27T07:38:12.951Z,20.70
2019-04-27T07:40:43.704Z,21.00
2019-04-27T07:43:15.468Z,21.20
2019-04-27T07:45:45.586Z,21.60
2019-04-27T07:48:15.969Z,22.40
2019-04-27T07:50:46.438Z,23.20
2019-04-27T07:53:16.762Z,23.80
2019-04-27T07:55:47.281Z,24.20
2019-04-27T07:58:17.410Z,24.00
2019-04-27T08:00:49.482Z,24.40
2019-04-27T08:03:19.900Z,25.50
2019-04-27T08:05:50.224Z,26.70
2019-04-27T08:08:20.551Z,27.50
2019-04-27T08:10:51.283Z,27.50
2019-04-27T08:13:21.181Z,27.60
2019-04-27T08:15:51.199Z,27.60
2019-04-27T08:18:22.857Z,28.30
2019-04-27T08:20:56.906Z,29.20
2019-04-27T08:23:25.938Z,30.20
2019-04-27T08:25:58.882Z,30.30
2019-04-27T08:28:30.553Z,30.40
2019-04-27T08:31:02.065Z,30.90
2019-04-27T08:33:31.989Z,30.30
2019-04-27T08:36:01.811Z,31.40
2019-04-27T08:38:33.147Z,31.50
2019-04-27T08:41:03.563Z,31.80
2019-04-27T08:43:35.732Z,31.60
2019-04-27T08:46:05.873Z,31.50
2019-04-27T08:48:37.012Z,31.70
2019-04-27T08:51:09.278Z,32.20
2019-04-27T08:53:39.818Z,32.00
2019-04-27T08:56:09.983Z,32.30
2019-04-27T08:58:39.885Z,32.40
2019-04-27T09:01:10.417Z,32.20
2019-04-27T09:03:40.431Z,32.80
2019-04-27T09:06:11.871Z,32.60
2019-04-27T09:08:46.390Z,32.70
2019-04-27T09:11:18.660Z,32.90
2019-04-27T09:13:54.244Z,32.80
2019-04-27T09:16:28.825Z,32.70
2019-04-27T09:19:00.596Z,32.50
2019-04-27T09:21:32.192Z,32.30
2019-04-27T09:24:02.210Z,32.50
2019-04-27T09:26:32.219Z,32.80
2019-04-27T09:29:02.273Z,31.40
2019-04-27T09:31:32.162Z,32.00
2019-04-27T09:34:02.045Z,31.40
2019-04-27T09:36:31.871Z,31.40
2019-04-27T09:39:01.921Z,31.40
2019-04-27T09:41:31.763Z,31.10
2019-04-27T09:44:02.958Z,30.80
2019-04-27T09:46:33.280Z,30.70
2019-04-27T09:49:03.817Z,30.50
2019-04-27T09:51:36.265Z,30.30
2019-04-27T09:54:06.095Z,29.80
2019-04-27T09:56:36.343Z,29.00
2019-04-27T09:59:06.488Z,28.50
2019-04-27T10:01:36.959Z,28.40
2019-04-27T10:04:07.005Z,28.70
2019-04-27T10:06:36.950Z,28.50
2019-04-27T10:09:08.221Z,29.20
2019-04-27T10:11:38.043Z,29.70
2019-04-27T10:14:07.885Z,30.20
2019-04-27T10:16:37.726Z,30.20
2019-04-27T10:19:07.683Z,30.50
2019-04-27T10:21:39.785Z,30.00
2019-04-27T10:24:09.739Z,29.60
2019-04-27T10:26:39.641Z,29.10
2019-04-27T10:29:10.999Z,28.50
2019-04-27T10:31:40.833Z,28.20
2019-04-27T10:34:10.806Z,27.30
2019-04-27T10:36:40.838Z,26.40
2019-04-27T10:39:13.544Z,25.70
2019-04-27T10:41:43.727Z,25.60
2019-04-27T10:44:13.580Z,26.00
2019-04-27T10:46:43.611Z,26.30
2019-04-27T10:49:13.527Z,26.10
2019-04-27T10:51:43.438Z,25.60
2019-04-27T10:54:13.331Z,25.40
2019-04-27T10:56:43.409Z,25.10
2019-04-27T10:59:13.412Z,24.50
2019-04-27T11:01:43.369Z,23.90
2019-04-27T11:04:17.898Z,23.50
2019-04-27T11:06:52.414Z,23.00
2019-04-27T11:09:22.449Z,22.50
2019-04-27T11:11:52.463Z,22.10
2019-04-27T11:14:22.302Z,22.00
2019-04-27T11:16:52.215Z,22.00
2019-04-27T11:19:22.264Z,22.10
2019-04-27T11:21:52.417Z,22.00
2019-04-27T11:24:22.423Z,22.00
2019-04-27T11:26:52.281Z,22.00
2019-04-27T11:29:22.109Z,22.00
2019-04-27T11:31:52.167Z,22.00
2019-04-27T11:34:23.639Z,22.20
2019-04-27T11:36:57.599Z,22.30
2019-04-27T11:39:27.486Z,22.40
2019-04-27T11:41:57.453Z,22.50
2019-04-27T11:44:27.315Z,22.60
2019-04-27T11:46:57.161Z,22.60
2019-04-27T11:49:27.138Z,23.30
2019-04-27T11:51:57.067Z,23.60
2019-04-27T11:54:27.550Z,24.10
2019-04-27T11:56:57.796Z,24.80
2019-04-27T11:59:27.801Z,25.40
2019-04-27T12:01:57.748Z,25.70
2019-04-27T12:04:27.581Z,25.50
2019-04-27T12:06:57.545Z,25.50
2019-04-27T12:09:27.374Z,25.40
2019-04-27T12:12:12.381Z,25.20
2019-04-27T12:14:28.859Z,24.70
2019-04-27T12:16:58.776Z,24.30
2019-04-27T12:19:28.596Z,23.80
2019-04-27T12:21:58.468Z,23.90
2019-04-27T12:24:28.450Z,24.40
2019-04-27T12:27:00.003Z,24.30
2019-04-27T12:29:34.421Z,24.40
2019-04-27T12:32:05.629Z,24.20
2019-04-27T12:34:36.125Z,23.70
2019-04-27T12:37:07.297Z,23.60
2019-04-27T12:39:37.221Z,23.00
2019-04-27T12:42:07.158Z,22.60
2019-04-27T12:44:42.178Z,22.30
2019-04-27T12:47:08.691Z,22.20
2019-04-27T12:49:38.705Z,22.20
2019-04-27T12:52:08.595Z,21.90
2019-04-27T12:54:40.199Z,21.90
2019-04-27T12:57:12.019Z,21.80
2019-04-27T12:59:49.243Z,21.60
2019-04-27T13:02:21.954Z,21.80
2019-04-27T13:04:51.893Z,21.80
2019-04-27T13:07:21.898Z,22.10
2019-04-27T13:09:52.012Z,22.00
2019-04-27T13:12:22.173Z,22.30
2019-04-27T13:14:52.141Z,22.10
2019-04-27T13:17:23.544Z,22.00
2019-04-27T13:19:56.081Z,21.70
2019-04-27T13:22:26.269Z,21.40
2019-04-27T13:24:56.613Z,21.10
2019-04-27T13:27:27.036Z,20.90
2019-04-27T13:29:57.619Z,20.60
2019-04-27T13:32:29.120Z,20.60
2019-04-27T13:34:59.385Z,20.80
2019-04-27T13:37:33.982Z,20.80
2019-04-27T13:40:09.498Z,20.60
2019-04-27T13:42:38.176Z,20.60
2019-04-27T13:45:26.621Z,20.60
2019-04-27T13:48:14.244Z,20.70
2019-04-27T13:50:45.827Z,20.80
2019-04-27T13:53:16.758Z,20.70
2019-04-27T13:55:48.458Z,20.40
2019-04-27T13:58:18.436Z,20.20
2019-04-27T14:00:48.352Z,20.00
2019-04-27T14:03:20.868Z,19.90
2019-04-27T14:05:50.042Z,19.70
2019-04-27T14:08:19.949Z,19.20
2019-04-27T14:10:51.408Z,19.00
2019-04-27T14:13:21.444Z,18.90
2019-04-27T14:15:51.677Z,18.60
2019-04-27T14:18:21.778Z,18.30
2019-04-27T14:20:51.806Z,18.20
2019-04-27T14:23:23.382Z,18.10
2019-04-27T14:25:53.351Z,18.20
2019-04-27T14:28:23.244Z,18.30
2019-04-27T14:30:53.251Z,18.30
2019-04-27T14:33:23.273Z,18.10
2019-04-27T14:35:53.124Z,18.00
2019-04-27T14:38:24.018Z,18.10
2019-04-27T14:40:54.299Z,18.20
2019-04-27T14:43:24.110Z,18.30
2019-04-27T14:45:54.065Z,18.00
2019-04-27T14:48:23.996Z,17.70
2019-04-27T14:50:53.837Z,17.60
2019-04-27T14:53:23.803Z,17.60
2019-04-27T14:55:53.708Z,17.60
2019-04-27T14:58:23.623Z,17.30
2019-04-27T15:00:53.627Z,17.30
2019-04-27T15:03:23.550Z,17.10
2019-04-27T15:05:54.137Z,17.00
2019-04-27T15:08:25.617Z,17.10
2019-04-27T15:10:55.584Z,17.10
2019-04-27T15:13:25.459Z,17.10
2019-04-27T15:15:55.493Z,16.90
2019-04-27T15:18:29.595Z,16.80
2019-04-27T15:21:02.401Z,16.40
2019-04-27T15:23:30.887Z,16.40
2019-04-27T15:26:01.785Z,16.40
2019-04-27T15:28:33.361Z,16.10
2019-04-27T15:31:04.837Z,16.10
2019-04-27T15:33:54.659Z,15.90
2019-04-27T15:36:31.149Z,15.90
2019-04-27T15:39:22.495Z,15.90
2019-04-27T15:41:51.972Z,15.80
2019-04-27T15:44:21.902Z,15.60
2019-04-27T15:46:51.831Z,15.40
2019-04-27T15:49:21.964Z,15.20
2019-04-27T15:51:54.876Z,15.20
2019-04-27T15:54:29.076Z,15.20
2019-04-27T15:56:54.822Z,15.20
2019-04-27T15:59:37.199Z,15.10
2019-04-27T16:02:05.617Z,15.00
2019-04-27T16:04:34.622Z,14.90
2019-04-27T16:07:04.676Z,14.80
2019-04-27T16:09:34.609Z,14.80
2019-04-27T16:12:10.710Z,14.70
2019-04-27T16:14:36.481Z,14.60
2019-04-27T16:17:11.435Z,14.70
2019-04-27T16:19:40.669Z,14.60
2019-04-27T16:22:11.129Z,14.60
2019-04-27T16:24:42.300Z,14.60
2019-04-27T16:27:12.213Z,14.70
2019-04-27T16:29:42.248Z,14.60
2019-04-27T16:32:12.279Z,14.60
2019-04-27T16:34:42.291Z,14.50
2019-04-27T16:37:13.963Z,14.60
2019-04-27T16:39:47.207Z,14.70
2019-04-27T16:42:18.630Z,14.70
2019-04-27T16:44:52.936Z,14.60
2019-04-27T16:47:24.265Z,14.60
2019-04-27T16:49:51.725Z,14.50
2019-04-27T16:52:21.726Z,13.90
2019-04-27T16:54:57.031Z,14.40
2019-04-27T16:57:24.749Z,14.40
2019-04-27T16:59:57.514Z,14.60
2019-04-27T17:02:26.090Z,14.50
2019-04-27T17:04:56.035Z,14.50
2019-04-27T17:07:30.200Z,14.30
2019-04-27T17:09:59.494Z,14.30
2019-04-27T17:12:34.386Z,14.20
2019-04-27T17:15:05.750Z,14.00
2019-04-27T17:17:42.729Z,14.10
2019-04-27T17:20:12.993Z,14.00
2019-04-27T17:22:45.581Z,13.90
2019-04-27T17:25:15.431Z,13.90
2019-04-27T17:27:48.246Z,13.90
2019-04-27T17:30:18.920Z,13.90
2019-04-27T17:32:53.988Z,14.00
2019-04-27T17:35:23.987Z,13.90
2019-04-27T17:37:54.421Z,13.90
2019-04-27T17:40:24.483Z,13.90
2019-04-27T17:42:54.413Z,13.80
2019-04-27T17:45:24.509Z,13.80
2019-04-27T17:47:54.343Z,13.70
2019-04-27T17:50:26.273Z,13.70
2019-04-27T17:52:59.062Z,13.70
2019-04-27T17:55:29.285Z,13.70
2019-04-27T17:58:05.356Z,13.70
2019-04-27T18:00:32.905Z,13.70
2019-04-27T18:03:02.910Z,13.70
2019-04-27T18:05:32.910Z,13.60
2019-04-27T18:08:02.931Z,13.60
2019-04-27T18:10:33.033Z,13.50
2019-04-27T18:13:03.107Z,13.50
2019-04-27T18:15:33.137Z,13.60
2019-04-27T18:18:22.872Z,13.40
2019-04-27T18:20:52.109Z,13.40
2019-04-27T18:23:23.768Z,13.30
2019-04-27T18:25:55.268Z,13.30
2019-04-27T18:28:28.390Z,13.40
2019-04-27T18:30:59.905Z,13.30
2019-04-27T18:33:32.658Z,13.40
2019-04-27T18:36:05.425Z,13.40
2019-04-27T18:38:35.483Z,13.40
2019-04-27T18:41:07.995Z,13.40
2019-04-27T18:43:38.454Z,13.40
2019-04-27T18:46:09.066Z,13.30
2019-04-27T18:48:44.760Z,13.40
2019-04-27T18:51:30.279Z,13.30
2019-04-27T18:54:03.555Z,13.40
2019-04-27T18:56:33.483Z,13.40
2019-04-27T18:59:03.454Z,13.30
2019-04-27T19:01:33.462Z,13.30
2019-04-27T19:04:03.370Z,13.30
2019-04-27T19:06:33.425Z,13.30
2019-04-27T19:09:04.965Z,13.30
2019-04-27T19:11:34.973Z,13.30
2019-04-27T19:14:05.061Z,13.30
2019-04-27T19:16:35.075Z,13.30
2019-04-27T19:19:05.680Z,13.30
2019-04-27T19:21:35.688Z,13.30
2019-04-27T19:24:05.563Z,13.30
2019-04-27T19:26:49.210Z,13.10
2019-04-27T19:29:21.342Z,13.10
2019-04-27T19:31:59.072Z,13.10
2019-04-27T19:34:29.385Z,13.10
2019-04-27T19:36:59.719Z,13.20
2019-04-27T19:39:30.453Z,13.10
2019-04-27T19:42:03.743Z,13.10
2019-04-27T19:44:33.763Z,13.10
2019-04-27T19:47:05.857Z,13.10
2019-04-27T19:49:38.698Z,13.10
2019-04-27T19:52:08.820Z,13.00
2019-04-27T19:54:39.848Z,13.00
2019-04-27T19:57:10.296Z,12.90
2019-04-27T19:59:42.057Z,13.00
2019-04-27T20:02:15.541Z,12.90
2019-04-27T20:04:48.037Z,12.90
2019-04-27T20:07:18.515Z,12.90
2019-04-27T20:09:51.342Z,12.90
2019-04-27T20:12:21.659Z,12.90
2019-04-27T20:14:58.128Z,12.90
2019-04-27T20:17:31.195Z,12.80
2019-04-27T20:20:02.668Z,12.80
2019-04-27T20:22:33.401Z,12.80
2019-04-27T20:25:03.993Z,12.90
2019-04-27T20:27:46.026Z,12.90
2019-04-27T20:30:11.109Z,12.90
2019-04-27T20:32:41.863Z,13.00
2019-04-27T20:35:12.187Z,13.00
2019-04-27T20:37:42.717Z,13.00
2019-04-27T20:40:13.349Z,12.90
2019-04-27T20:42:46.537Z,12.90
2019-04-27T20:45:17.168Z,12.90
2019-04-27T20:47:47.508Z,12.80
2019-04-27T20:50:17.844Z,12.80
2019-04-27T20:52:50.881Z,12.70
2019-04-27T20:55:22.605Z,12.70
2019-04-27T20:58:01.652Z,12.70
2019-04-27T21:00:26.695Z,12.80
2019-04-27T21:03:04.461Z,12.80
2019-04-27T21:05:45.770Z,12.80
2019-04-27T21:08:17.735Z,12.90
2019-04-27T21:10:48.262Z,12.80
2019-04-27T21:13:18.673Z,12.70
2019-04-27T21:15:51.036Z,12.70
2019-04-27T21:18:21.894Z,12.70
2019-04-27T21:20:52.662Z,12.70
2019-04-27T21:23:25.819Z,12.80
2019-04-27T21:25:56.352Z,12.80
2019-04-27T21:28:26.877Z,12.80
2019-04-27T21:30:57.198Z,12.90
2019-04-27T21:33:27.727Z,12.80
2019-04-27T21:35:58.667Z,12.80
2019-04-27T21:38:28.992Z,12.70
2019-04-27T21:40:59.517Z,12.80
2019-04-27T21:43:29.846Z,12.80
2019-04-27T21:46:00.173Z,12.80
2019-04-27T21:48:31.278Z,12.80
2019-04-27T21:51:02.245Z,12.70
2019-04-27T21:53:36.666Z,12.60
2019-04-27T21:56:08.628Z,12.70
2019-04-27T21:58:38.954Z,12.70
2019-04-27T22:01:13.040Z,12.70
2019-04-27T22:03:43.490Z,12.70
2019-04-27T22:06:14.223Z,12.70
2019-04-27T22:08:44.741Z,12.60
2019-04-27T22:11:14.871Z,12.50
2019-04-27T22:13:45.200Z,12.60
2019-04-27T22:16:15.724Z,12.60
2019-04-27T22:18:46.460Z,12.60
2019-04-27T22:21:17.193Z,12.60
2019-04-27T22:24:11.231Z,12.60
2019-04-27T22:26:42.209Z,12.60
2019-04-27T22:29:12.942Z,12.60
2019-04-27T22:31:43.470Z,12.60
2019-04-27T22:34:13.590Z,12.60
2019-04-27T22:36:43.913Z,12.60
2019-04-27T22:39:33.889Z,12.50
2019-04-27T22:42:23.235Z,12.40
2019-04-27T22:44:54.822Z,12.40
2019-04-27T22:47:25.146Z,12.40
2019-04-27T22:49:55.674Z,12.40
2019-04-27T22:52:26.203Z,12.40
2019-04-27T22:54:56.526Z,12.40
2019-04-27T22:57:31.297Z,12.30
2019-04-27T23:00:03.707Z,12.30
2019-04-27T23:02:38.356Z,12.30
2019-04-27T23:05:10.824Z,12.30
2019-04-27T23:07:42.071Z,12.20
2019-04-27T23:10:12.748Z,12.20
2019-04-27T23:12:42.924Z,12.20
2019-04-27T23:15:15.091Z,12.20
2019-04-27T23:17:56.269Z,12.20
2019-04-27T23:20:26.897Z,12.20
2019-04-27T23:22:57.121Z,12.30
2019-04-27T23:25:27.444Z,12.30
2019-04-27T23:27:57.768Z,12.20
2019-04-27T23:30:31.213Z,12.20
2019-04-27T23:33:01.492Z,12.20
2019-04-27T23:35:32.947Z,12.20
2019-04-27T23:38:14.862Z,12.20
2019-04-27T23:40:35.122Z,12.20
2019-04-27T23:43:05.446Z,12.30
2019-04-27T23:45:35.974Z,12.20
2019-04-27T23:48:06.505Z,12.20
2019-04-27T23:50:38.465Z,12.30
2019-04-27T23:53:11.833Z,12.30
2019-04-27T23:55:42.594Z,12.30
2019-04-27T23:58:13.327Z,12.30
